createdAt,value
2022-12-24T00:00:37.527Z,22.30
2022-12-24T00:03:04.314Z,15.80
2022-12-24T00:05:30.942Z,24.00
2022-12-24T00:07:57.985Z,21.23
2022-12-24T00:10:24.669Z,20.27
2022-12-24T00:12:51.205Z,22.83
2022-12-24T00:15:17.816Z,22.30
2022-12-24T00:17:44.420Z,26.33
2022-12-24T00:20:11.096Z,22.50
2022-12-24T00:22:37.695Z,23.93
2022-12-24T00:25:04.662Z,26.73
2022-12-24T00:27:31.258Z,17.47
2022-12-24T00:29:57.826Z,31.60
2022-12-24T00:32:24.338Z,23.40
2022-12-24T00:34:51.189Z,33.87
2022-12-24T00:37:17.759Z,24.40
2022-12-24T00:39:44.474Z,27.13
2022-12-24T00:42:11.450Z,28.23
2022-12-24T00:44:37.925Z,23.27
2022-12-24T00:47:09.954Z,20.13
2022-12-24T00:49:38.569Z,26.30
2022-12-24T00:52:05.501Z,24.93
2022-12-24T00:54:32.024Z,26.80
2022-12-24T00:56:58.937Z,25.40
2022-12-24T00:59:25.759Z,25.60
2022-12-24T01:01:52.361Z,25.67
2022-12-24T01:04:38.604Z,26.13
2022-12-24T01:07:05.440Z,22.27
2022-12-24T01:09:31.959Z,23.83
2022-12-24T01:11:58.542Z,33.33
2022-12-24T01:14:25.069Z,29.20
2022-12-24T01:16:51.692Z,28.73
2022-12-24T01:19:18.249Z,32.63
2022-12-24T01:21:44.835Z,21.30
2022-12-24T01:24:15.549Z,25.17
2022-12-24T01:26:43.338Z,27.80
2022-12-24T01:29:09.923Z,27.50
2022-12-24T01:31:36.847Z,28.77
2022-12-24T01:34:03.749Z,20.83
2022-12-24T01:36:30.461Z,25.87
2022-12-24T01:38:57.256Z,24.20
2022-12-24T01:41:42.837Z,24.83
2022-12-24T01:44:21.515Z,27.60
2022-12-24T01:46:54.078Z,27.90
2022-12-24T01:49:20.932Z,29.60
2022-12-24T01:51:57.489Z,37.07
2022-12-24T01:54:34.069Z,22.57
2022-12-24T01:57:10.099Z,30.53
2022-12-24T01:59:38.057Z,30.77
2022-12-24T02:02:05.148Z,32.87
2022-12-24T02:05:02.577Z,25.13
2022-12-24T02:07:29.418Z,38.87
2022-12-24T02:10:01.484Z,32.30
2022-12-24T02:12:30.728Z,38.27
2022-12-24T02:14:57.400Z,23.63
2022-12-24T02:17:37.885Z,23.33
2022-12-24T02:20:38.793Z,30.37
2022-12-24T02:23:23.540Z,25.53
2022-12-24T02:26:18.339Z,30.70
2022-12-24T02:29:03.969Z,24.73
2022-12-24T02:31:49.107Z,25.17
2022-12-24T02:34:19.768Z,29.97
2022-12-24T02:36:56.016Z,24.07
2022-12-24T02:39:44.073Z,31.80
2022-12-24T02:42:12.424Z,20.53
2022-12-24T02:44:51.784Z,27.67
2022-12-24T02:47:19.939Z,29.40
2022-12-24T02:49:48.362Z,30.00
2022-12-24T02:52:33.650Z,35.47
2022-12-24T02:55:04.260Z,28.73
2022-12-24T02:57:39.082Z,33.40
2022-12-24T03:00:08.528Z,30.87
2022-12-24T03:03:13.718Z,34.13
2022-12-24T03:06:20.047Z,33.23
2022-12-24T03:08:55.110Z,29.03
2022-12-24T03:11:22.075Z,31.17
2022-12-24T03:13:49.428Z,28.27
2022-12-24T03:16:19.508Z,28.60
2022-12-24T03:18:48.114Z,31.37
2022-12-24T03:21:28.384Z,27.53
2022-12-24T03:23:55.864Z,30.67
2022-12-24T03:26:22.663Z,33.47
2022-12-24T03:28:50.020Z,26.40
2022-12-24T03:31:17.083Z,30.13
2022-12-24T03:33:44.272Z,34.63
2022-12-24T03:36:11.181Z,35.83
2022-12-24T03:38:38.032Z,36.57
2022-12-24T03:41:05.031Z,34.87
2022-12-24T03:43:31.907Z,32.50
2022-12-24T03:45:58.643Z,30.30
2022-12-24T03:48:32.254Z,31.73
2022-12-24T03:50:59.393Z,25.77
2022-12-24T03:53:25.933Z,27.17
2022-12-24T03:55:52.578Z,35.37
2022-12-24T03:58:19.286Z,36.70
2022-12-24T04:00:45.886Z,25.00
2022-12-24T04:03:13.743Z,36.63
2022-12-24T04:05:40.545Z,29.83
2022-12-24T04:08:07.286Z,32.47
2022-12-24T04:10:33.845Z,34.57
2022-12-24T04:13:00.573Z,32.07
2022-12-24T04:15:27.426Z,24.60
2022-12-24T04:17:54.287Z,35.70
2022-12-24T04:20:20.836Z,31.27
2022-12-24T04:22:47.524Z,34.23
2022-12-24T04:25:14.290Z,33.13
2022-12-24T04:27:40.834Z,27.53
2022-12-24T04:30:08.294Z,25.90
2022-12-24T04:32:35.016Z,37.10
2022-12-24T04:35:01.744Z,30.60
2022-12-24T04:37:28.474Z,30.37
2022-12-24T04:39:55.146Z,33.33
2022-12-24T04:42:21.715Z,30.30
2022-12-24T04:44:48.360Z,29.97
2022-12-24T04:47:14.877Z,24.63
2022-12-24T04:49:41.464Z,24.67
2022-12-24T04:52:08.047Z,31.00
2022-12-24T04:54:34.639Z,29.90
2022-12-24T04:57:01.318Z,24.47
2022-12-24T04:59:27.957Z,36.27
2022-12-24T05:01:54.755Z,20.93
2022-12-24T05:04:21.893Z,26.97
2022-12-24T05:06:48.597Z,28.13
2022-12-24T05:09:15.297Z,18.57
2022-12-24T05:11:41.973Z,26.43
2022-12-24T05:14:08.580Z,19.10
2022-12-24T05:16:35.171Z,22.90
2022-12-24T05:19:02.048Z,23.90
2022-12-24T05:21:28.792Z,20.03
2022-12-24T05:24:13.962Z,24.80
2022-12-24T05:26:49.212Z,21.53
2022-12-24T05:29:16.049Z,19.47
2022-12-24T05:31:43.608Z,22.33
2022-12-24T05:34:11.335Z,25.20
2022-12-24T05:36:38.231Z,19.97
2022-12-24T05:39:09.764Z,19.57
2022-12-24T05:41:40.203Z,20.90
2022-12-24T05:44:06.708Z,19.80
2022-12-24T05:46:33.647Z,28.43
2022-12-24T05:49:00.319Z,23.07
2022-12-24T05:51:26.889Z,22.87
2022-12-24T05:53:53.448Z,16.83
2022-12-24T05:56:22.150Z,21.83
2022-12-24T05:58:49.173Z,18.67
2022-12-24T06:01:15.995Z,26.27
2022-12-24T06:03:42.705Z,25.53
2022-12-24T06:06:14.325Z,24.67
2022-12-24T06:08:42.046Z,22.03
2022-12-24T06:11:12.075Z,20.47
2022-12-24T06:13:39.523Z,24.10
2022-12-24T06:16:07.835Z,23.40
2022-12-24T06:18:35.438Z,23.70
2022-12-24T06:21:02.932Z,21.93
2022-12-24T06:23:31.161Z,27.10
2022-12-24T06:26:00.915Z,20.30
2022-12-24T06:28:29.300Z,21.23
2022-12-24T06:31:02.119Z,25.03
2022-12-24T06:33:29.804Z,19.57
2022-12-24T06:35:56.475Z,29.00
2022-12-24T06:38:23.147Z,24.83
2022-12-24T06:40:49.691Z,21.97
2022-12-24T06:43:16.445Z,31.43
2022-12-24T06:45:47.603Z,19.30
2022-12-24T06:48:14.792Z,21.27
2022-12-24T06:50:41.656Z,22.27
2022-12-24T06:53:08.467Z,25.00
2022-12-24T06:55:35.145Z,24.17
2022-12-24T06:58:01.737Z,21.13
2022-12-24T07:00:28.343Z,20.50
2022-12-24T07:02:54.989Z,19.63
2022-12-24T07:05:21.640Z,22.70
2022-12-24T07:07:48.116Z,20.03
2022-12-24T07:10:16.759Z,24.83
2022-12-24T07:12:44.009Z,32.83
2022-12-24T07:15:11.671Z,24.20
2022-12-24T07:17:38.587Z,27.43
2022-12-24T07:20:06.257Z,23.00
2022-12-24T07:22:32.833Z,22.00
2022-12-24T07:24:59.457Z,31.23
2022-12-24T07:27:26.119Z,15.07
2022-12-24T07:29:52.651Z,21.03
2022-12-24T07:32:20.488Z,22.40
2022-12-24T07:34:47.261Z,22.60
2022-12-24T07:37:14.151Z,28.83
2022-12-24T07:39:40.764Z,19.87
2022-12-24T07:42:08.511Z,22.13
2022-12-24T07:44:35.103Z,25.83
2022-12-24T07:47:01.702Z,21.37
2022-12-24T07:49:28.314Z,18.93
2022-12-24T07:51:55.443Z,20.23
2022-12-24T07:54:22.213Z,22.77
2022-12-24T07:56:48.692Z,25.67
2022-12-24T07:59:15.730Z,22.77
2022-12-24T08:01:42.697Z,31.03
2022-12-24T08:04:09.425Z,24.90
2022-12-24T08:06:36.061Z,23.57
2022-12-24T08:09:03.296Z,25.13
2022-12-24T08:11:29.855Z,22.73
2022-12-24T08:13:57.768Z,23.77
2022-12-24T08:16:24.290Z,24.73
2022-12-24T08:18:50.952Z,28.27
2022-12-24T08:21:17.528Z,43.20
2022-12-24T08:23:44.159Z,31.67
2022-12-24T08:26:12.122Z,34.80
2022-12-24T08:28:39.173Z,28.03
2022-12-24T08:31:06.718Z,25.70
2022-12-24T08:33:33.244Z,25.30
2022-12-24T08:36:01.505Z,31.60
2022-12-24T08:38:28.087Z,22.87
2022-12-24T08:40:55.359Z,31.90
2022-12-24T08:43:22.451Z,32.97
2022-12-24T08:45:50.355Z,27.60
2022-12-24T08:48:17.398Z,25.60
2022-12-24T08:50:44.180Z,27.60
2022-12-24T08:53:11.156Z,23.80
2022-12-24T08:55:37.843Z,32.07
2022-12-24T08:58:04.690Z,22.23
2022-12-24T09:00:31.430Z,30.73
2022-12-24T09:02:58.179Z,25.27
2022-12-24T09:05:26.210Z,31.20
2022-12-24T09:07:53.068Z,28.13
2022-12-24T09:10:19.880Z,33.00
2022-12-24T09:12:46.559Z,27.17
2022-12-24T09:15:14.458Z,32.40
2022-12-24T09:17:41.380Z,25.80
2022-12-24T09:20:08.672Z,30.53
2022-12-24T09:22:37.194Z,25.17
2022-12-24T09:25:04.904Z,25.97
2022-12-24T09:27:31.983Z,28.67
2022-12-24T09:29:58.558Z,30.87
2022-12-24T09:32:25.124Z,27.63
2022-12-24T09:34:51.686Z,27.67
2022-12-24T09:37:18.412Z,33.10
2022-12-24T09:39:44.942Z,35.23
2022-12-24T09:42:24.017Z,29.03
2022-12-24T09:45:04.166Z,31.63
2022-12-24T09:47:44.174Z,34.10
2022-12-24T09:50:27.495Z,27.93
2022-12-24T09:52:55.834Z,28.87
2022-12-24T09:55:58.230Z,36.47
2022-12-24T09:58:30.953Z,21.87
2022-12-24T10:00:57.577Z,34.33
2022-12-24T10:03:24.268Z,28.03
2022-12-24T10:06:21.057Z,26.43
2022-12-24T10:08:57.770Z,27.47
2022-12-24T10:11:44.783Z,28.03
2022-12-24T10:14:23.403Z,29.60
2022-12-24T10:16:59.179Z,37.63
2022-12-24T10:19:47.710Z,26.20
2022-12-24T10:23:00.718Z,27.07
2022-12-24T10:25:49.918Z,25.07
2022-12-24T10:28:28.929Z,27.27
2022-12-24T10:30:58.701Z,22.77
2022-12-24T10:33:36.348Z,25.20
2022-12-24T10:36:09.803Z,30.97
2022-12-24T10:38:38.640Z,27.57
2022-12-24T10:41:05.309Z,28.27
2022-12-24T10:43:31.896Z,28.97
2022-12-24T10:46:02.261Z,27.20
2022-12-24T10:48:56.363Z,34.37
2022-12-24T10:51:33.559Z,29.70
2022-12-24T10:54:08.660Z,24.03
2022-12-24T10:56:43.820Z,28.50
2022-12-24T10:59:25.386Z,29.20
2022-12-24T11:01:52.718Z,26.83
2022-12-24T11:04:21.471Z,30.23
2022-12-24T11:06:57.071Z,45.60
2022-12-24T11:09:27.029Z,36.20
2022-12-24T11:11:55.220Z,23.73
2022-12-24T11:14:22.330Z,25.90
2022-12-24T11:16:51.423Z,24.07
2022-12-24T11:19:21.154Z,28.43
2022-12-24T11:21:47.660Z,30.30
2022-12-24T11:24:14.162Z,24.83
2022-12-24T11:26:42.619Z,29.17
2022-12-24T11:29:35.375Z,28.07
2022-12-24T11:32:18.725Z,24.40
2022-12-24T11:34:45.546Z,32.03
2022-12-24T11:37:15.450Z,32.47
2022-12-24T11:39:46.495Z,27.90
2022-12-24T11:42:32.912Z,28.90
2022-12-24T11:45:01.346Z,28.57
2022-12-24T11:47:38.155Z,32.43
2022-12-24T11:50:31.931Z,30.30
2022-12-24T11:53:04.754Z,35.90
2022-12-24T11:55:41.183Z,32.13
2022-12-24T11:58:32.562Z,33.63
2022-12-24T12:01:25.123Z,25.70
2022-12-24T12:03:54.227Z,31.97
2022-12-24T12:06:25.535Z,32.77
2022-12-24T12:09:01.597Z,38.23
2022-12-24T12:11:29.294Z,24.00
2022-12-24T12:13:58.624Z,28.87
2022-12-24T12:17:01.295Z,25.97
2022-12-24T12:19:35.419Z,25.77
2022-12-24T12:22:05.098Z,23.67
2022-12-24T12:24:38.013Z,36.80
2022-12-24T12:27:15.251Z,26.67
2022-12-24T12:29:57.525Z,26.33
2022-12-24T12:32:49.139Z,35.00
2022-12-24T12:35:15.718Z,26.17
2022-12-24T12:37:45.861Z,26.60
2022-12-24T12:40:17.254Z,25.90
2022-12-24T12:43:23.574Z,29.60
2022-12-24T12:45:54.214Z,25.90
2022-12-24T12:48:39.584Z,29.33
2022-12-24T12:51:06.101Z,25.53
2022-12-24T12:54:03.164Z,31.00
2022-12-24T12:56:31.885Z,26.40
2022-12-24T12:59:13.672Z,25.37
2022-12-24T13:02:31.510Z,27.63
2022-12-24T13:05:35.286Z,25.27
2022-12-24T13:08:16.571Z,23.97
2022-12-24T13:11:21.374Z,31.20
2022-12-24T13:14:06.564Z,24.10
2022-12-24T13:16:48.650Z,21.10
2022-12-24T13:19:15.202Z,23.07
2022-12-24T13:21:46.126Z,22.77
2022-12-24T13:24:21.317Z,21.00
2022-12-24T13:27:07.830Z,28.93
2022-12-24T13:29:52.673Z,22.17
2022-12-24T13:32:22.179Z,24.70
2022-12-24T13:34:50.352Z,29.53
2022-12-24T13:37:34.849Z,33.53
2022-12-24T13:40:07.560Z,26.67
2022-12-24T13:43:01.439Z,22.33
2022-12-24T13:45:31.244Z,24.00
2022-12-24T13:48:07.041Z,29.20
2022-12-24T13:50:47.413Z,27.60
2022-12-24T13:53:26.589Z,24.90
2022-12-24T13:55:55.070Z,28.00
2022-12-24T13:58:24.276Z,21.47
2022-12-24T14:01:02.682Z,22.07
2022-12-24T14:03:42.554Z,32.00
2022-12-24T14:06:22.056Z,28.77
2022-12-24T14:08:50.594Z,24.53
2022-12-24T14:11:22.699Z,21.33
2022-12-24T14:13:49.154Z,16.70
2022-12-24T14:16:32.493Z,22.70
2022-12-24T14:19:03.619Z,26.00
2022-12-24T14:21:34.768Z,23.53
2022-12-24T14:24:14.443Z,44.13
2022-12-24T14:27:24.327Z,27.83
2022-12-24T14:29:57.814Z,25.70
2022-12-24T14:32:24.374Z,21.67
2022-12-24T14:35:08.939Z,23.53
2022-12-24T14:37:35.825Z,23.83
2022-12-24T14:40:02.625Z,28.47
2022-12-24T14:42:56.784Z,27.63
2022-12-24T14:45:33.964Z,25.23
2022-12-24T14:48:39.307Z,21.50
2022-12-24T14:51:20.690Z,21.47
2022-12-24T14:54:31.975Z,20.83
2022-12-24T14:57:23.320Z,26.57
2022-12-24T14:59:57.928Z,22.87
2022-12-24T15:02:42.727Z,19.70
2022-12-24T15:05:11.109Z,20.13
2022-12-24T15:07:46.970Z,24.60
2022-12-24T15:10:25.850Z,29.40
2022-12-24T15:12:52.851Z,20.27
2022-12-24T15:15:19.812Z,20.20
2022-12-24T15:17:46.526Z,19.80
2022-12-24T15:20:18.592Z,18.20
2022-12-24T15:22:47.053Z,19.47
2022-12-24T15:25:25.654Z,20.47
2022-12-24T15:27:52.625Z,23.93
2022-12-24T15:30:25.609Z,20.43
2022-12-24T15:32:58.322Z,19.03
2022-12-24T15:35:31.085Z,20.87
2022-12-24T15:38:02.764Z,21.93
2022-12-24T15:40:29.519Z,20.33
2022-12-24T15:42:56.415Z,16.90
2022-12-24T15:45:28.674Z,19.67
2022-12-24T15:47:58.571Z,18.73
2022-12-24T15:50:30.243Z,23.83
2022-12-24T15:53:21.214Z,22.67
2022-12-24T15:56:04.069Z,23.20
2022-12-24T15:58:33.563Z,20.40
2022-12-24T16:01:09.463Z,18.33
2022-12-24T16:03:39.161Z,17.77
2022-12-24T16:06:11.804Z,18.90
2022-12-24T16:08:40.111Z,20.90
2022-12-24T16:11:21.690Z,25.20
2022-12-24T16:14:02.357Z,20.77
2022-12-24T16:16:41.411Z,21.97
2022-12-24T16:19:17.482Z,25.43
2022-12-24T16:21:44.444Z,16.93
2022-12-24T16:24:10.913Z,20.13
2022-12-24T16:26:38.623Z,21.57
2022-12-24T16:29:05.240Z,23.97
2022-12-24T16:31:52.389Z,18.60
2022-12-24T16:34:19.735Z,25.10
2022-12-24T16:36:46.767Z,23.67
2022-12-24T16:39:24.605Z,23.00
2022-12-24T16:42:15.331Z,20.20
2022-12-24T16:44:42.561Z,19.67
2022-12-24T16:47:21.976Z,18.27
2022-12-24T16:49:48.742Z,19.37
2022-12-24T16:52:18.713Z,20.20
2022-12-24T16:54:45.306Z,18.37
2022-12-24T16:57:11.807Z,19.60
2022-12-24T16:59:39.305Z,19.23
2022-12-24T17:02:14.075Z,29.40
2022-12-24T17:04:42.098Z,25.23
2022-12-24T17:07:10.384Z,23.77
2022-12-24T17:09:37.063Z,23.13
2022-12-24T17:12:04.011Z,19.47
2022-12-24T17:14:30.570Z,22.50
2022-12-24T17:16:57.337Z,20.83
2022-12-24T17:19:24.223Z,18.60
2022-12-24T17:21:50.937Z,21.17
2022-12-24T17:24:17.795Z,18.70
2022-12-24T17:26:44.773Z,24.70
2022-12-24T17:29:11.293Z,20.70
2022-12-24T17:31:43.192Z,20.80
2022-12-24T17:34:10.435Z,21.33
2022-12-24T17:36:37.008Z,24.13
2022-12-24T17:39:04.036Z,19.00
2022-12-24T17:41:30.592Z,17.23
2022-12-24T17:43:58.598Z,11.17
2022-12-24T17:46:25.260Z,13.43
2022-12-24T17:48:52.407Z,13.90
2022-12-24T17:51:21.364Z,8.73
2022-12-24T17:53:48.812Z,16.60
2022-12-24T17:56:15.615Z,16.50
2022-12-24T17:58:43.493Z,10.07
2022-12-24T18:01:13.039Z,10.03
2022-12-24T18:03:39.871Z,13.13
2022-12-24T18:06:08.709Z,11.27
2022-12-24T18:08:36.919Z,10.60
2022-12-24T18:11:23.796Z,14.50
2022-12-24T18:13:51.035Z,11.27
2022-12-24T18:16:21.645Z,13.47
2022-12-24T18:18:49.005Z,10.30
2022-12-24T18:21:17.773Z,12.30
2022-12-24T18:23:45.875Z,15.57
2022-12-24T18:26:12.818Z,18.50
2022-12-24T18:28:39.868Z,16.83
2022-12-24T18:31:09.730Z,20.20
2022-12-24T18:33:36.462Z,19.70
2022-12-24T18:36:03.227Z,17.23
2022-12-24T18:38:29.995Z,14.33
2022-12-24T18:41:05.220Z,17.47
2022-12-24T18:43:32.140Z,17.23
2022-12-24T18:45:58.788Z,17.03
2022-12-24T18:48:26.224Z,21.83
2022-12-24T18:50:57.573Z,16.07
2022-12-24T18:53:25.408Z,17.07
2022-12-24T18:55:52.631Z,16.10
2022-12-24T18:58:19.689Z,16.70
2022-12-24T19:00:46.778Z,16.27
2022-12-24T19:03:16.458Z,15.87
2022-12-24T19:05:43.394Z,14.23
2022-12-24T19:08:37.686Z,15.17
2022-12-24T19:10:56.663Z,13.53
2022-12-24T19:13:23.231Z,17.73
2022-12-24T19:15:49.860Z,19.07
2022-12-24T19:18:16.471Z,15.73
2022-12-24T19:20:42.983Z,17.40
2022-12-24T19:23:09.761Z,16.07
2022-12-24T19:25:36.666Z,18.17
2022-12-24T19:28:08.564Z,15.90
2022-12-24T19:30:45.896Z,20.93
2022-12-24T19:33:12.410Z,9.73
2022-12-24T19:35:38.973Z,14.07
2022-12-24T19:38:05.745Z,11.90
2022-12-24T19:40:32.667Z,16.23
2022-12-24T19:42:59.180Z,14.10
2022-12-24T19:45:25.839Z,12.30
2022-12-24T19:47:53.366Z,17.03
2022-12-24T19:50:20.674Z,11.60
2022-12-24T19:52:47.703Z,17.73
2022-12-24T19:55:15.141Z,19.00
2022-12-24T19:57:42.143Z,15.97
2022-12-24T20:00:10.526Z,17.53
2022-12-24T20:02:37.663Z,19.43
2022-12-24T20:05:04.787Z,22.20
2022-12-24T20:07:31.660Z,18.27
2022-12-24T20:09:58.432Z,22.13
2022-12-24T20:12:25.135Z,21.57
2022-12-24T20:14:55.211Z,18.27
2022-12-24T20:17:21.772Z,18.33
2022-12-24T20:19:48.398Z,20.37
2022-12-24T20:22:15.062Z,16.90
2022-12-24T20:24:41.598Z,15.23
2022-12-24T20:27:08.358Z,19.13
2022-12-24T20:29:34.960Z,20.53
2022-12-24T20:32:01.761Z,24.77
2022-12-24T20:34:28.708Z,20.80
2022-12-24T20:36:55.382Z,20.60
2022-12-24T20:39:21.986Z,19.97
2022-12-24T20:41:48.528Z,20.87
2022-12-24T20:44:15.119Z,23.40
2022-12-24T20:46:41.759Z,22.50
2022-12-24T20:49:11.524Z,20.87
2022-12-24T20:51:37.991Z,26.20
2022-12-24T20:54:04.567Z,18.43
2022-12-24T20:56:31.690Z,54.47
2022-12-24T20:58:59.232Z,32.40
2022-12-24T21:01:26.539Z,27.67
2022-12-24T21:03:54.847Z,28.13
2022-12-24T21:06:22.958Z,23.33
2022-12-24T21:08:50.547Z,27.13
2022-12-24T21:11:36.001Z,19.57
2022-12-24T21:14:03.099Z,18.23
2022-12-24T21:16:31.440Z,19.60
2022-12-24T21:18:58.165Z,21.37
2022-12-24T21:21:24.805Z,17.77
2022-12-24T21:23:52.766Z,20.60
2022-12-24T21:26:19.339Z,23.10
2022-12-24T21:28:45.944Z,18.50
2022-12-24T21:31:13.948Z,21.30
2022-12-24T21:33:40.934Z,20.90
2022-12-24T21:36:08.175Z,18.37
2022-12-24T21:38:35.431Z,17.00
2022-12-24T21:41:04.940Z,26.30
2022-12-24T21:43:32.691Z,18.27
2022-12-24T21:45:59.326Z,31.07
2022-12-24T21:48:45.234Z,33.60
2022-12-24T21:51:11.919Z,26.20
2022-12-24T21:53:57.007Z,24.77
2022-12-24T21:56:23.699Z,23.83
2022-12-24T21:58:51.030Z,20.63
2022-12-24T22:01:18.081Z,20.47
2022-12-24T22:03:48.597Z,24.67
2022-12-24T22:06:35.488Z,21.13
2022-12-24T22:09:20.646Z,22.00
2022-12-24T22:11:54.177Z,20.13
2022-12-24T22:14:21.779Z,20.33
2022-12-24T22:16:48.576Z,18.77
2022-12-24T22:19:15.175Z,25.20
2022-12-24T22:21:41.754Z,24.33
2022-12-24T22:24:08.873Z,22.27
2022-12-24T22:26:35.614Z,25.23
2022-12-24T22:29:05.304Z,16.83
2022-12-24T22:31:32.821Z,21.47
2022-12-24T22:33:59.753Z,22.70
2022-12-24T22:36:26.619Z,26.10
2022-12-24T22:38:53.315Z,55.43
2022-12-24T22:41:20.379Z,27.97
2022-12-24T22:43:49.793Z,23.13
2022-12-24T22:46:16.971Z,20.77
2022-12-24T22:48:45.147Z,24.10
2022-12-24T22:51:16.208Z,17.87
2022-12-24T22:53:42.938Z,26.63
2022-12-24T22:56:13.236Z,19.37
2022-12-24T22:58:40.005Z,19.70
2022-12-24T23:01:07.343Z,20.80
2022-12-24T23:03:34.551Z,19.73
2022-12-24T23:06:06.131Z,19.77
2022-12-24T23:08:38.005Z,16.93
2022-12-24T23:11:08.415Z,19.40
2022-12-24T23:13:55.305Z,18.07
2022-12-24T23:16:22.092Z,12.83
2022-12-24T23:18:48.687Z,20.47
2022-12-24T23:21:15.263Z,18.77
2022-12-24T23:23:41.843Z,18.80
2022-12-24T23:26:11.361Z,13.43
2022-12-24T23:28:38.525Z,17.77
2022-12-24T23:31:05.465Z,18.63
2022-12-24T23:33:32.150Z,19.17
2022-12-24T23:35:58.838Z,16.63
2022-12-24T23:38:25.398Z,17.33
2022-12-24T23:40:59.382Z,11.27
2022-12-24T23:43:26.262Z,10.37
2022-12-24T23:45:53.563Z,13.93
2022-12-24T23:48:21.397Z,11.90
2022-12-24T23:50:48.207Z,15.23
2022-12-24T23:53:16.715Z,17.37
2022-12-24T23:55:43.600Z,12.50
2022-12-24T23:58:13.519Z,17.83
